Latest Coastal Weather Observations for Wilsons Promontory

IDT60701

Issued at 3:32 pm EDT Thursday 11 February 2016 (issued every 10 minutes, with the page automatically refreshed every 10 minutes)

About coastal observations | Map of coastal stations | Coastal observations for TAS | Marine services | Other Formats
Station Details ID: 085096 Name: WILSONS PROMONTORY LIGHTHOUSE Lat: -39.13 Lon: 146.42 Height: 95.0 m
Data from the previous 72 hours. | See also: Recent months at Wilsons Promontory
Date/Time
EDT
Temp

°C
Wind Pressure Rain
since 9am
mm
Weather Cloud Vis
km
Sea
Height
m
Swell
Dir
 
Speed
knots
Gust
knots
hPa Trend Height
m
Period
s
Dir
11/03:30pm 19.9 W 6 11 1015.8 - 0.0 - - - - - - -
11/03:00pm 19.8 SW 11 18 1015.9 - 0.0 - - - - - - -
11/02:00pm 19.9 SW 11 16 1016.3 - 0.0 - - - - - - -
11/01:30pm 19.6 W 6 12 1016.3 - 0.0 - - - - - - -
11/12:30pm 19.7 WSW 14 16 1016.6 - 0.0 - - - - - - -
11/12:00pm 19.7 WSW 14 16 1016.8 - 0.0 - - - - - - -
11/11:30am 19.4 WSW 14 16 1017.1 - 0.0 - - - - - - -
11/11:00am 19.4 W 12 15 1017.2 - 0.0 - - - - - - -
11/10:30am 19.5 W 12 15 1017.1 - 0.0 - - - - - - -
11/10:00am 19.2 W 12 15 1017.1 - 0.0 - - - - - - -
11/09:30am 19.2 W 13 17 1016.9 - 0.0 - - - - - - -
11/09:00am 18.6 W 13 16 1016.5 - 0.0 - - - - - - -
11/08:30am 18.4 WSW 13 17 1016.5 - 0.0 - - - - - - -
11/08:00am 18.3 WSW 13 17 1016.5 - 0.0 - - - - - - -
11/07:30am 18.1 WSW 13 17 1016.1 - 0.0 - - - - - - -
11/07:00am 17.8 W 14 18 1015.6 - 0.0 - - - - - - -
11/06:30am 17.7 WSW 18 20 1015.3 - 0.0 - - - - - - -
11/06:00am 17.7 WSW 18 21 1014.7 - 0.0 - - - - - - -
11/05:30am 17.7 WSW 15 21 1014.5 - 0.0 - - - - - - -
11/05:00am 17.7 WSW 19 21 1014.3 - 0.0 - - - - - - -
11/04:30am 17.6 W 14 19 1014.5 - 0.0 - - - - - - -
11/04:00am 17.6 W 14 19 1014.5 - 0.0 - - - - - - -
11/03:30am 17.7 WSW 19 23 1014.3 - 0.0 - - - - - - -
11/03:00am 17.7 WSW 18 22 1014.2 - 0.0 - - - - - - -
11/02:30am 17.9 WSW 19 24 1014.6 - 0.0 - - - - - - -
11/02:00am 17.8 W 12 20 1014.9 - 0.0 - - - - - - -
11/01:30am 17.4 W 11 17 1015.0 - 0.0 - - - - - - -
11/01:00am 17.5 W 15 20 1015.0 - 0.0 - - - - - - -
11/12:30am 17.8 W 16 21 1015.0 - 0.0 - - - - - - -
11/12:00am 17.8 W 15 22 1014.8 - 0.0 - - - - - - -
 
Date/Time
EDT
Temp

°C
Wind Pressure Rain
since 9am
mm
Weather Cloud Vis
km
Sea
Height
m
Swell
Dir
 
Speed
knots
Gust
knots
hPa Trend Height
m
Period
s
Dir
10/11:30pm 17.8 W 20 27 1014.9 - 0.0 - - - - - - -
10/11:00pm 17.9 W 18 24 1015.0 - 0.0 - - - - - - -
10/10:30pm 18.1 W 17 23 1015.0 - 0.0 - - - - - - -
10/10:00pm 17.9 W 18 22 1014.9 - 0.0 - - - - - - -
10/09:30pm 18.0 W 19 24 1014.5 - 0.0 - - - - - - -
10/09:00pm 18.0 W 21 26 1014.1 - 0.0 - - - - - - -
10/08:00pm 18.3 W 19 26 1014.0 - 0.0 - - - - - - -
10/07:30pm 18.6 W 20 26 1013.6 - 0.0 - - - - - - -
10/07:00pm 19.1 W 19 24 1013.7 - 0.0 - - - - - - -
10/06:30pm 19.1 W 20 25 1013.5 - 0.0 - - - - - - -
10/06:00pm 19.2 W 20 25 1013.2 - 0.0 - - - - - - -
10/05:30pm 19.2 W 19 25 1013.4 - 0.0 - - - - - - -
10/05:00pm 19.5 W 22 27 1013.3 - 0.0 - - - - - - -
10/04:30pm 19.6 W 20 26 1013.2 - 0.0 - - - - - - -
10/04:00pm 19.9 W 19 25 1013.5 - 0.0 - - - - - - -
10/03:30pm 19.4 W 19 25 1013.6 - 0.0 - - - - - - -
10/03:00pm 20.0 W 21 26 1013.6 - 0.0 - - - - - - -
10/02:30pm 19.6 W 21 25 1013.9 - 0.0 - - - - - - -
10/02:00pm 19.1 W 22 26 1013.9 - 0.0 - - - - - - -
10/01:30pm 19.7 W 18 24 1014.1 - 0.0 - - - - - - -
10/01:00pm 20.0 W 19 24 1014.4 - 0.0 - - - - - - -
10/12:30pm 19.6 W 20 26 1014.5 - 0.0 - - - - - - -
10/12:00pm 19.5 W 22 26 1014.5 - 0.0 - - - - - - -
10/11:30am 19.1 W 22 26 1014.8 - 0.0 - - - - - - -
10/11:00am 18.8 W 22 27 1014.8 - 0.0 - - - - - - -
10/10:30am 19.1 W 18 25 1014.7 - 0.0 - - - - - - -
10/10:05am 18.8 W 15 27 1014.7 - 0.0 - - - - - - -
10/10:00am 19.2 W 12 20 1014.8 - 0.0 - - - - - - -
10/09:30am 18.9 W 15 24 1014.8 - 0.0 - - - - - - -
10/09:00am 19.4 W 11 17 1014.7 - 0.0 - - - - - - -
10/08:30am 17.8 W 14 19 1014.6 - 0.0 - - - - - - -
10/08:00am 17.7 W 14 19 1014.4 - 0.0 - - - - - - -
10/07:30am 17.5 W 14 19 1014.3 - 0.0 - - - - - - -
10/07:00am 17.3 W 15 19 1013.9 - 0.0 - - - - - - -
10/06:30am 17.4 W 12 17 1013.9 - 0.0 - - - - - - -
10/06:00am 17.6 W 14 18 1013.6 - 0.0 - - - - - - -
10/05:30am 17.5 W 14 17 1013.8 - 0.0 - - - - - - -
10/05:00am 17.7 W 10 16 1013.7 - 0.0 - - - - - - -
10/04:30am 17.8 W 12 17 1013.7 - 0.0 - - - - - - -
10/04:00am 17.8 W 10 14 1013.9 - 0.0 - - - - - - -
10/03:30am 17.8 W 13 16 1014.3 - 0.0 - - - - - - -
10/03:00am 17.6 W 10 13 1014.2 - 0.0 - - - - - - -
10/02:30am 17.3 WNW 9 11 1014.9 - 0.0 - - - - - - -
10/02:00am 17.2 WNW 10 13 1015.1 - 0.0 - - - - - - -
10/01:00am 17.5 WNW 11 11 1015.5 - 0.0 - - - - - - -
10/12:30am 17.8 W 10 11 1015.9 - 0.0 - - - - - - -
10/12:00am 17.6 W 9 11 1016.1 - 0.0 - - - - - - -
 
Date/Time
EDT
Temp

°C
Wind Pressure Rain
since 9am
mm
Weather Cloud Vis
km
Sea
Height
m
Swell
Dir
 
Speed
knots
Gust
knots
hPa Trend Height
m
Period
s
Dir
09/11:30pm 17.7 W 5 7 1016.6 - 0.0 - - - - - - -
09/11:00pm 17.9 W 5 6 1017.1 - 0.0 - - - - - - -
09/10:30pm 17.5 N 6 7 1017.2 - 0.0 - - - - - - -
09/10:00pm 17.6 N 5 6 1017.3 - 0.0 - - - - - - -
09/09:30pm 17.7 N 6 8 1017.3 - 0.0 - - - - - - -
09/09:00pm 17.8 N 5 6 1017.2 - 0.0 - - - - - - -
09/08:30pm 18.0 NNE 5 7 1017.5 - 0.0 - - - - - - -
09/08:00pm 18.6 N 1 4 1017.5 - 0.0 - - - - - - -
09/07:30pm 18.7 CALM 0 0 1017.4 - 0.0 - - - - - - -
09/07:00pm 19.2 SW 2 4 1017.5 - 0.0 - - - - - - -
09/06:30pm 19.7 WSW 5 6 1017.5 - 0.0 - - - - - - -
09/06:00pm 19.9 WSW 7 8 1017.4 - 0.0 - - - - - - -
09/05:30pm 19.8 SW 9 11 1017.8 - 0.0 - - - - - - -
09/05:00pm 20.8 WSW 8 11 1018.1 - 0.0 - - - - - - -
09/04:30pm 20.6 WSW 10 12 1018.3 - 0.0 - - - - - - -
09/04:00pm 20.5 WSW 10 12 1018.7 - 0.0 - - - - - - -
09/03:30pm 20.5 WSW 9 11 1019.0 - 0.0 - - - - - - -
09/03:00pm 20.1 WSW 9 12 1019.1 - 0.0 - - - - - - -
09/02:30pm 21.1 SW 4 7 1019.5 - 0.0 - - - - - - -
09/02:00pm 20.1 ESE 4 6 1019.8 - 0.0 - - - - - - -
09/01:30pm 20.8 ESE 2 6 1019.8 - 0.0 - - - - - - -
09/01:00pm 20.8 E 8 10 1020.1 - 0.0 - - - - - - -
09/12:30pm 21.1 NE 7 9 1020.5 - 0.0 - - - - - - -
09/12:00pm 20.6 WSW 7 16 1020.4 - 0.0 - - - - - - -
09/11:30am 19.9 W 9 16 1020.6 - 0.0 - - - - - - -
09/11:00am 19.4 W 11 19 1020.6 - 0.0 - - - - - - -
09/10:30am 20.3 W 7 14 1020.7 - 0.0 - - - - - - -
09/10:00am 19.3 W 11 16 1020.6 - 0.0 - - - - - - -
09/09:30am 19.5 WNW 8 17 1020.8 - 0.0 - - - - - - -
09/09:00am 18.5 W 10 14 1020.5 - 0.0 - - - - - - -
09/08:30am 18.3 WNW 8 15 1020.6 - 0.0 - - - - - - -
09/08:00am 18.4 NW 12 21 1020.3 - 0.0 - - - - - - -
09/07:30am 17.4 NW 10 22 1020.2 - 0.0 - - - - - - -
09/07:00am 16.8 WNW 11 15 1020.3 - 0.0 - - - - - - -
09/06:30am 16.7 WNW 11 16 1020.2 - 0.0 - - - - - - -
09/06:00am 16.5 WNW 10 20 1019.6 - 0.0 - - - - - - -
09/05:30am 16.5 SSE 5 19 1019.9 - 0.0 - - - - - - -
09/05:00am 16.5 W 15 21 1019.6 - 0.0 - - - - - - -
09/04:30am 16.4 WNW 10 18 1019.5 - 0.0 - - - - - - -
09/04:00am 16.7 W 17 23 1019.5 - 0.0 - - - - - - -
09/03:30am 16.9 W 18 23 1019.5 - 0.0 - - - - - - -
09/03:00am 17.1 W 15 21 1019.8 - 0.0 - - - - - - -
09/02:30am 17.1 W 14 19 1020.2 - 0.0 - - - - - - -
09/02:00am 17.1 W 17 23 1020.2 - 0.0 - - - - - - -
09/01:30am 17.3 W 20 26 1020.1 - 0.0 - - - - - - -
09/01:00am 17.3 W 22 29 1020.2 - 0.0 - - - - - - -
09/12:30am 17.4 W 24 28 1020.2 - 0.0 - - - - - - -
09/12:00am 17.4 W 25 30 1020.1 - 0.0 - - - - - - -
 
Date/Time
EDT
Temp

°C
Wind Pressure Rain
since 9am
mm
Weather Cloud Vis
km
Sea
Height
m
Swell
Dir
 
Speed
knots
Gust
knots
hPa Trend Height
m
Period
s
Dir
08/11:30pm 17.3 W 23 28 1020.6 - 0.0 - - - - - - -
08/11:00pm 17.3 W 18 25 1021.0 - 0.0 - - - - - - -
08/10:54pm 17.3 W 20 30 1021.0 - 0.0 - - - - - - -
08/10:30pm 17.3 W 22 29 1021.0 - 0.0 - - - - - - -
08/10:00pm 17.4 W 21 28 1020.9 - 0.0 - - - - - - -
08/09:49pm 17.4 W 19 29 1021.0 - 0.0 - - - - - - -
08/09:30pm 17.5 W 20 29 1020.7 - 0.0 - - - - - - -
08/09:00pm 17.7 W 21 29 1020.3 - 0.0 - - - - - - -
08/08:30pm 17.9 W 20 25 1020.2 - 0.0 - - - - - - -
08/08:12pm 18.1 W 21 31 1020.1 - 0.0 - - - - - - -
08/08:00pm 18.2 W 21 29 1020.0 - 0.0 - - - - - - -
08/07:41pm 18.4 W 24 34 1019.7 - 0.0 - - - - - - -
08/07:30pm 18.6 W 25 31 1019.5 - 0.0 - - - - - - -
08/07:00pm 18.8 W 26 34 1019.2 - 0.0 - - - - - - -
08/06:30pm 19.2 W 26 30 1019.2 - 0.0 - - - - - - -
08/06:00pm 19.4 W 24 31 1019.1 - 0.0 - - - - - - -
08/05:30pm 19.5 W 25 31 1019.5 - 0.0 - - - - - - -
08/05:04pm 19.9 W 23 33 1019.8 - 0.0 - - - - - - -
08/05:00pm 19.9 W 24 33 1019.8 - 0.0 - - - - - - -
08/04:53pm 19.5 W 22 32 1019.8 - 0.0 - - - - - - -
08/04:30pm 20.0 W 25 31 1019.9 - 0.0 - - - - - - -
08/04:00pm 19.9 W 23 29 1020.0 - 0.0 - - - - - - -

Other Formats:

Comma delimited format used in spreadsheet applications
http://www.bom.gov.au/fwo/IDT60701/IDT60701.94893.axf

JavaScript Object Notation format (JSON) in row-major order
http://www.bom.gov.au/fwo/IDT60701/IDT60701.94893.json